Time;durP1;ratioP1;P1;durP2;ratioP2;P2;SDS_P1;SDS_P2;PMS_P1;PMS_P2;Temp;Humidity;BMP_temperature;BMP_pressure;BME280_temperature;BME280_humidity;BME280_pressure;Samples;Min_cycle;Max_cycle;Signal;HPM_P1;HPM_P2
2021/01/08 00:01:51;;;;;;;29.17;16.30;;;2.50;99.90;;;;;;4840693;29;20026;-94
2021/01/08 00:04:20;;;;;;;27.52;15.88;;;2.40;99.90;;;;;;4863674;29;20018;-96
2021/01/08 00:06:46;;;;;;;26.13;15.57;;;2.40;99.90;;;;;;4859296;29;20018;-95
2021/01/08 00:09:11;;;;;;;26.52;16.42;;;2.40;99.90;;;;;;4863259;29;20069;-95
2021/01/08 00:11:38;;;;;;;30.10;16.98;;;2.40;99.90;;;;;;4837243;29;20364;-95
2021/01/08 00:14:04;;;;;;;32.70;16.65;;;2.40;99.90;;;;;;4833930;29;20049;-94
2021/01/08 00:16:35;;;;;;;28.15;15.45;;;2.40;99.90;;;;;;4869179;29;20042;-93
2021/01/08 00:19:03;;;;;;;23.40;12.57;;;2.40;99.90;;;;;;4853125;29;20022;-94
2021/01/08 00:21:44;;;;;;;29.55;16.17;;;2.40;99.90;;;;;;4850111;29;20183;-95
2021/01/08 00:24:14;;;;;;;29.95;16.77;;;2.30;99.90;;;;;;4865293;29;20018;-95
2021/01/08 00:26:43;;;;;;;32.67;19.02;;;2.40;99.90;;;;;;4845295;29;20060;-95
2021/01/08 00:29:15;;;;;;;30.10;17.58;;;2.30;99.90;;;;;;4821410;29;20076;-95
2021/01/08 00:31:46;;;;;;;30.33;17.35;;;2.40;99.90;;;;;;4837372;29;20031;-96
2021/01/08 00:34:13;;;;;;;;;;;2.40;99.90;;;;;;4826299;29;20060;-94
2021/01/08 00:36:51;;;;;;;30.67;17.48;;;2.40;99.90;;;;;;4819895;29;19958;-94
2021/01/08 00:39:18;;;;;;;29.30;17.42;;;2.30;99.90;;;;;;4813810;29;20026;-93
2021/01/08 00:41:47;;;;;;;29.27;16.42;;;2.40;99.90;;;;;;4805311;29;20398;-95
2021/01/08 00:44:16;;;;;;;31.10;17.45;;;2.40;99.90;;;;;;4800921;29;20058;-94
2021/01/08 00:46:47;;;;;;;29.65;17.52;;;2.30;99.90;;;;;;4822493;29;20037;-95
2021/01/08 00:49:18;;;;;;;29.02;16.52;;;2.30;99.90;;;;;;4803325;29;20382;-95
2021/01/08 00:51:45;;;;;;;30.48;16.90;;;2.20;99.90;;;;;;4774817;30;20040;-95
2021/01/08 00:54:11;;;;;;;29.67;17.10;;;2.10;99.90;;;;;;4781619;29;20130;-93
2021/01/08 00:56:37;;;;;;;29.55;17.13;;;2.20;99.90;;;;;;4783196;30;20063;-93
2021/01/08 00:59:04;;;;;;;30.27;16.88;;;2.10;99.90;;;;;;4811465;29;20042;-96
2021/01/08 01:32:33;;;;;;;26.95;16.20;;;1.90;99.90;;;;;;5008006;23;20041;-93
2021/01/08 01:34:59;;;;;;;29.08;15.57;;;1.90;99.90;;;;;;4888178;29;20059;-94
2021/01/08 01:37:24;;;;;;;30.10;16.73;;;1.90;99.90;;;;;;4887760;29;20037;-95
2021/01/08 01:39:52;;;;;;;31.98;16.92;;;1.90;99.90;;;;;;4888074;29;20021;-95
2021/01/08 01:42:18;;;;;;;28.67;15.82;;;1.90;99.90;;;;;;4904658;29;20037;-95
2021/01/08 01:44:45;;;;;;;29.23;15.32;;;1.80;99.90;;;;;;4905131;29;20037;-96
2021/01/08 01:47:11;;;;;;;28.30;16.20;;;1.80;99.90;;;;;;4888939;29;20050;-95
2021/01/08 02:20:42;;;;;;;22.33;12.35;;;2.00;99.90;;;;;;4934076;23;20061;-94
2021/01/08 02:23:24;;;;;;;21.88;12.93;;;2.10;99.90;;;;;;4874066;29;20069;-96
2021/01/08 02:25:53;;;;;;;;;;;1.90;99.90;;;;;;4885206;29;20052;-96
2021/01/08 02:28:26;;;;;;;21.80;12.50;;;1.90;99.90;;;;;;4903800;29;19906;-95
2021/01/08 02:30:54;;;;;;;19.10;12.23;;;1.90;99.90;;;;;;4914360;23;20057;-93
2021/01/08 02:33:23;;;;;;;21.13;11.88;;;1.90;99.90;;;;;;4888908;29;20045;-96
2021/01/08 03:10:10;;;;;;;26.52;14.93;;;1.70;99.90;;;;;;5146915;23;20048;-96
2021/01/08 03:12:38;;;;;;;22.50;13.50;;;1.70;99.90;;;;;;4891057;29;20043;-94
2021/01/08 03:15:10;;;;;;;25.45;14.02;;;1.70;99.90;;;;;;4893338;29;20028;-95
2021/01/08 03:17:36;;;;;;;25.20;14.43;;;1.70;99.90;;;;;;4894908;29;20013;-94
2021/01/08 03:20:02;;;;;;;24.33;14.48;;;1.60;99.90;;;;;;4902170;29;20112;-94
2021/01/08 03:22:29;;;;;;;22.85;13.32;;;1.70;99.90;;;;;;4919671;29;20044;-93
2021/01/08 03:24:56;;;;;;;28.13;17.52;;;1.70;99.90;;;;;;4918265;29;20077;-95
2021/01/08 03:27:21;;;;;;;25.13;14.45;;;1.70;99.90;;;;;;4895417;29;20468;-94
2021/01/08 03:29:47;;;;;;;29.95;16.60;;;1.70;99.90;;;;;;4875760;29;20048;-94
2021/01/08 03:32:13;;;;;;;28.10;16.65;;;1.70;99.90;;;;;;4894634;29;20069;-93
2021/01/08 03:34:38;;;;;;;26.55;16.15;;;1.70;99.90;;;;;;4867028;29;20029;-94
2021/01/08 03:37:04;;;;;;;25.90;15.02;;;1.70;99.90;;;;;;4865438;29;20033;-94
2021/01/08 03:39:30;;;;;;;26.35;14.82;;;1.70;99.90;;;;;;4887805;29;20029;-92
2021/01/08 03:41:57;;;;;;;26.15;15.23;;;1.80;99.90;;;;;;4871082;29;20037;-96
2021/01/08 03:44:23;;;;;;;28.70;15.95;;;1.80;99.90;;;;;;4883035;29;20033;-94
2021/01/08 03:46:49;;;;;;;29.75;16.15;;;1.70;99.90;;;;;;4872754;29;20041;-93
2021/01/08 03:49:14;;;;;;;24.40;13.98;;;1.70;99.90;;;;;;4898008;29;20049;-95
2021/01/08 03:51:41;;;;;;;30.42;16.40;;;1.70;99.90;;;;;;4881143;29;20026;-95
2021/01/08 03:54:07;;;;;;;27.60;16.17;;;1.70;99.90;;;;;;4876030;29;20044;-93
2021/01/08 03:56:33;;;;;;;30.40;16.88;;;1.80;99.90;;;;;;4898101;29;20085;-94
2021/01/08 03:58:59;;;;;;;29.10;16.63;;;1.80;99.90;;;;;;4905881;29;20069;-96
2021/01/08 04:01:24;;;;;;;31.05;17.30;;;1.70;99.90;;;;;;4924229;29;20045;-95
2021/01/08 04:03:50;;;;;;;26.90;15.60;;;1.70;99.90;;;;;;4890288;29;20036;-96
2021/01/08 04:06:16;;;;;;;28.85;16.08;;;1.70;99.90;;;;;;4909036;29;20024;-94
2021/01/08 04:08:42;;;;;;;26.70;15.30;;;1.70;99.90;;;;;;4910499;29;20061;-95
2021/01/08 04:11:09;;;;;;;25.40;14.30;;;1.70;99.90;;;;;;4891287;29;20044;-95
2021/01/08 04:13:35;;;;;;;28.58;15.32;;;1.70;99.90;;;;;;4907676;29;20092;-94
2021/01/08 04:16:00;;;;;;;28.65;15.88;;;1.70;99.90;;;;;;4908069;29;20024;-94
2021/01/08 04:18:27;;;;;;;24.55;14.20;;;1.70;99.90;;;;;;4908258;29;20021;-93
2021/01/08 04:23:40;;;;;;;;;;;;;;;;;;;;;
2021/01/08 04:39:23;;;;;;;25.73;13.48;;;1.60;99.90;;;;;;4905449;29;20081;-88
2021/01/08 04:42:23;;;;;;;25.20;14.35;;;1.70;99.90;;;;;;4903568;29;20045;-96
2021/01/08 04:47:47;;;;;;;25.45;13.70;;;1.60;99.90;;;;;;4933894;23;20057;-96
2021/01/08 04:50:14;;;;;;;24.75;13.50;;;1.60;99.90;;;;;;4867459;29;20045;-93
2021/01/08 04:52:42;;;;;;;23.65;12.30;;;1.70;99.90;;;;;;4883429;29;20517;-93
2021/01/08 04:55:19;;;;;;;20.52;11.68;;;1.60;99.90;;;;;;4904120;29;20088;-94
2021/01/08 04:57:55;;;;;;;25.10;13.65;;;1.60;99.90;;;;;;4905995;29;20049;-95
2021/01/08 05:00:22;;;;;;;23.08;12.45;;;1.50;99.90;;;;;;4889638;29;20021;-95
2021/01/08 05:02:53;;;;;;;32.00;14.27;;;1.60;99.90;;;;;;4861629;29;20430;-96
2021/01/08 05:05:23;;;;;;;23.83;12.73;;;1.60;99.90;;;;;;4898994;29;20029;-96
2021/01/08 05:10:27;;;;;;;25.80;13.13;;;1.60;99.90;;;;;;5198140;23;20304;-95
2021/01/08 05:13:04;;;;;;;;;;;;;;;;;;;;;
2021/01/08 05:15:38;;;;;;;23.95;12.73;;;1.70;99.90;;;;;;4905307;29;20052;-95
2021/01/08 05:18:04;;;;;;;25.23;12.20;;;1.60;99.90;;;;;;4875078;29;20020;-95
2021/01/08 05:20:31;;;;;;;25.35;12.20;;;1.60;99.90;;;;;;4886995;29;20420;-96
2021/01/08 05:23:00;;;;;;;23.55;11.80;;;1.60;99.90;;;;;;4893608;29;20039;-96
2021/01/08 05:25:27;;;;;;;25.05;13.95;;;1.60;99.90;;;;;;4862097;29;20021;-95
2021/01/08 05:28:02;;;;;;;22.52;12.00;;;1.50;99.90;;;;;;4895190;29;20064;-95
2021/01/08 05:34:14;;;;;;;22.35;11.55;;;1.40;99.90;;;;;;4896451;29;20033;-96
2021/01/08 05:36:42;;;;;;;20.25;11.80;;;1.40;99.90;;;;;;4888049;29;20029;-93
2021/01/08 05:39:10;;;;;;;22.38;11.75;;;1.40;99.90;;;;;;4900481;29;20044;-94
2021/01/08 05:41:36;;;;;;;22.48;11.57;;;1.30;99.90;;;;;;4901520;29;20040;-95
2021/01/08 05:44:02;;;;;;;22.25;11.90;;;1.40;99.90;;;;;;4879727;29;20029;-94
2021/01/08 05:46:32;;;;;;;20.52;11.90;;;1.30;99.90;;;;;;4899741;29;20029;-94
2021/01/08 05:49:04;;;;;;;20.85;11.40;;;1.30;99.90;;;;;;4879080;29;20033;-92
2021/01/08 05:51:32;;;;;;;;;;;1.30;99.90;;;;;;4893136;29;20124;-94
2021/01/08 05:54:01;;;;;;;21.98;12.05;;;1.40;99.90;;;;;;4882711;29;19919;-94
2021/01/08 05:56:31;;;;;;;22.60;11.90;;;1.30;99.90;;;;;;4891785;29;20025;-96
2021/01/08 05:58:58;;;;;;;22.92;11.35;;;1.30;99.90;;;;;;4871484;29;20476;-94
2021/01/08 06:02:19;;;;;;;;;;;;;;;;;;;;;
2021/01/08 06:04:40;;;;;;;22.30;11.43;;;1.30;99.90;;;;;;4828484;29;20038;-95
2021/01/08 06:10:00;;;;;;;25.00;12.10;;;1.30;99.90;;;;;;4923653;23;20618;-95
2021/01/08 06:13:25;;;;;;;;;;;;;;;;;;;;;
2021/01/08 06:16:00;;;;;;;24.95;12.38;;;1.30;99.90;;;;;;4881558;29;20068;-94
2021/01/08 06:18:27;;;;;;;23.35;12.35;;;1.30;99.90;;;;;;4867490;29;20037;-96
2021/01/08 06:21:05;;;;;;;26.25;13.88;;;1.30;99.90;;;;;;4893176;29;20447;-96
2021/01/08 06:26:33;;;;;;;27.45;14.02;;;1.30;99.90;;;;;;4895557;29;20016;-95
2021/01/08 06:29:22;;;;;;;25.00;12.70;;;1.30;99.90;;;;;;5109729;23;20070;-95
2021/01/08 06:32:13;;;;;;;26.20;12.73;;;1.30;99.90;;;;;;4903883;29;20047;-96
2021/01/08 06:35:11;;;;;;;24.00;11.80;;;1.30;99.90;;;;;;4841761;29;20068;-96
2021/01/08 06:37:44;;;;;;;22.95;12.07;;;1.40;99.90;;;;;;4883508;29;20017;-95
2021/01/08 06:40:41;;;;;;;23.58;12.63;;;1.30;99.90;;;;;;4900566;29;20021;-95
2021/01/08 06:43:23;;;;;;;23.48;12.18;;;1.40;99.90;;;;;;5309759;23;20052;-92
2021/01/08 06:48:25;;;;;;;23.17;12.68;;;1.40;99.90;;;;;;5191017;23;19914;-93
2021/01/08 06:50:57;;;;;;;24.52;12.60;;;1.40;99.90;;;;;;4895597;29;20089;-93
2021/01/08 06:53:26;;;;;;;21.55;12.05;;;1.50;99.90;;;;;;4891026;29;20025;-93
2021/01/08 06:55:54;;;;;;;21.40;11.68;;;1.50;99.90;;;;;;4905806;23;20025;-83
2021/01/08 06:58:21;;;;;;;24.05;12.52;;;1.50;99.90;;;;;;4862119;29;20054;-87
2021/01/08 07:00:52;;;;;;;22.77;14.00;;;1.50;99.90;;;;;;4841913;29;20054;-87
2021/01/08 07:03:23;;;;;;;23.17;12.43;;;1.50;99.90;;;;;;4857373;29;20046;-85
2021/01/08 07:05:54;;;;;;;25.65;13.63;;;1.50;99.90;;;;;;4862881;29;20033;-89
2021/01/08 07:08:21;;;;;;;23.00;13.45;;;1.60;99.90;;;;;;4861069;29;20034;-89
2021/01/08 07:10:51;;;;;;;23.20;12.95;;;1.50;99.90;;;;;;4864236;29;20026;-88
2021/01/08 07:13:28;;;;;;;24.73;14.40;;;1.50;99.90;;;;;;4852317;29;20071;-88
2021/01/08 07:15:54;;;;;;;21.08;12.55;;;1.60;99.90;;;;;;4861235;29;20104;-89
2021/01/08 07:18:25;;;;;;;24.52;13.40;;;1.50;99.90;;;;;;4829013;29;20112;-89
2021/01/08 07:20:57;;;;;;;23.30;13.20;;;1.50;99.90;;;;;;4841791;29;20056;-88
2021/01/08 07:23:28;;;;;;;23.75;13.82;;;1.50;99.90;;;;;;4825539;29;20045;-87
2021/01/08 07:25:55;;;;;;;26.40;14.25;;;1.50;99.90;;;;;;4841272;29;20101;-89
2021/01/08 07:28:21;;;;;;;25.55;14.02;;;1.50;99.90;;;;;;4845519;29;20045;-89
2021/01/08 07:31:07;;;;;;;27.42;15.77;;;1.50;99.90;;;;;;4844511;29;20034;-89
2021/01/08 07:33:33;;;;;;;26.02;15.45;;;1.40;99.90;;;;;;4829540;29;20022;-89
2021/01/08 07:36:20;;;;;;;26.52;16.08;;;1.50;99.90;;;;;;4851304;29;20056;-90
2021/01/08 07:38:46;;;;;;;31.95;18.10;;;1.50;99.90;;;;;;4829726;29;20030;-90
2021/01/08 07:41:13;;;;;;;31.40;17.67;;;1.50;99.90;;;;;;4864675;29;20108;-90
2021/01/08 07:43:39;;;;;;;33.88;18.83;;;1.50;99.90;;;;;;4863697;29;20026;-88
2021/01/08 07:46:08;;;;;;;31.65;18.60;;;1.60;99.90;;;;;;4874374;29;20070;-88
2021/01/08 07:48:49;;;;;;;34.10;17.27;;;1.60;99.90;;;;;;4874194;29;20033;-88
2021/01/08 07:51:14;;;;;;;28.35;16.20;;;1.60;99.90;;;;;;4869902;29;20428;-90
2021/01/08 07:53:47;;;;;;;27.42;14.73;;;1.70;99.90;;;;;;4846573;29;20113;-90
2021/01/08 07:56:20;;;;;;;25.73;15.73;;;1.70;99.90;;;;;;4863094;29;20037;-90
2021/01/08 07:58:55;;;;;;;24.52;14.55;;;1.60;99.90;;;;;;4856548;29;20021;-89
2021/01/08 08:01:21;;;;;;;24.63;14.98;;;1.70;99.90;;;;;;4857005;29;20443;-89
2021/01/08 08:04:02;;;;;;;22.90;14.85;;;1.70;99.90;;;;;;4851893;29;20033;-90
2021/01/08 08:06:35;;;;;;;22.58;13.45;;;1.70;99.90;;;;;;4860093;29;20095;-88
2021/01/08 08:09:04;;;;;;;22.77;13.63;;;1.80;99.90;;;;;;4874393;29;20042;-88
2021/01/08 08:11:34;;;;;;;23.52;12.50;;;1.80;99.90;;;;;;4872152;29;20102;-87
2021/01/08 08:14:05;;;;;;;21.65;12.98;;;1.80;99.90;;;;;;4870790;29;20129;-90
2021/01/08 08:16:36;;;;;;;22.83;13.15;;;1.80;99.90;;;;;;4845029;29;20061;-91
2021/01/08 08:19:20;;;;;;;25.95;12.93;;;1.80;99.90;;;;;;4827976;29;20042;-90
2021/01/08 08:30:41;;;;;;;27.52;16.90;;;1.80;99.90;;;;;;5328459;23;20041;-90
2021/01/08 08:36:04;;;;;;;28.02;16.27;;;1.80;99.90;;;;;;4903838;23;20051;-90
2021/01/08 08:41:44;;;;;;;28.48;16.08;;;1.90;99.90;;;;;;4944645;23;20067;-91
2021/01/08 08:44:16;;;;;;;30.40;17.23;;;1.90;99.90;;;;;;4879189;29;20028;-92
2021/01/08 08:46:50;;;;;;;28.10;17.17;;;1.90;99.90;;;;;;4875087;29;20364;-93
2021/01/08 08:49:39;;;;;;;31.45;16.60;;;2.00;99.90;;;;;;4871486;29;20024;-91
2021/01/08 08:52:11;;;;;;;26.77;16.98;;;2.00;99.90;;;;;;4869965;29;20154;-92
2021/01/08 08:54:38;;;;;;;31.15;17.77;;;2.00;99.90;;;;;;4886168;29;20025;-89
2021/01/08 08:57:10;;;;;;;31.13;16.33;;;2.10;99.90;;;;;;4869851;29;20093;-90
2021/01/08 08:59:54;;;;;;;31.13;18.05;;;2.20;99.90;;;;;;4894887;29;20058;-90
2021/01/08 09:02:34;;;;;;;35.55;19.00;;;2.20;99.90;;;;;;4884512;29;20068;-91
2021/01/08 09:05:07;;;;;;;33.92;18.13;;;2.30;99.90;;;;;;4894749;29;20036;-90
2021/01/08 09:08:10;;;;;;;29.08;17.30;;;2.20;99.90;;;;;;4889381;29;20025;-92
2021/01/08 09:10:50;;;;;;;29.98;17.60;;;2.30;99.90;;;;;;4869811;29;20033;-91
2021/01/08 09:13:24;;;;;;;27.13;16.33;;;2.20;99.90;;;;;;4872412;29;20486;-90
2021/01/08 09:19:29;;;;;;;30.10;16.90;;;2.20;99.90;;;;;;4890232;29;20032;-89
2021/01/08 09:22:19;;;;;;;31.02;17.35;;;2.30;99.90;;;;;;4871463;29;20522;-90
2021/01/08 09:25:00;;;;;;;35.45;18.38;;;2.30;99.90;;;;;;4874978;29;20032;-89
2021/01/08 09:28:02;;;;;;;;;;;;;;;;;;;;;
2021/01/08 09:30:31;;;;;;;25.45;15.15;;;2.50;99.90;;;;;;4892822;29;20081;-88
2021/01/08 09:32:57;;;;;;;29.20;15.57;;;2.50;99.90;;;;;;4856942;29;20351;-89
2021/01/08 09:35:25;;;;;;;30.50;17.52;;;2.50;99.90;;;;;;4871613;29;20093;-90
2021/01/08 09:38:28;;;;;;;;;;;;;;;;;;;;;
2021/01/08 09:41:01;;;;;;;26.27;15.45;;;2.60;99.90;;;;;;5085913;23;20057;-91
2021/01/08 09:43:27;;;;;;;28.17;16.38;;;2.70;99.90;;;;;;4884682;29;20033;-89
2021/01/08 09:46:05;;;;;;;26.98;14.82;;;2.60;99.90;;;;;;4870745;29;20028;-89
2021/01/08 09:48:49;;;;;;;29.50;15.48;;;2.70;99.90;;;;;;4868851;29;20048;-90
2021/01/08 10:00:01;;;;;;;;;;;;;;;;;;;;;
2021/01/08 13:00:14;;;;;;;22.00;12.68;;;3.20;99.90;;;;;;4867317;29;20276;-92
2021/01/08 13:10:23;;;;;;;;;;;;;;;;;;;;;
2021/01/08 13:27:24;;;;;;;;;;;;;;;;;;;;;
2021/01/08 14:31:48;;;;;;;;;;;;;;;;;;;;;
2021/01/08 14:34:19;;;;;;;22.08;13.10;;;3.20;99.90;;;;;;4957134;23;20136;-92
2021/01/08 14:36:50;;;;;;;22.92;12.88;;;3.10;99.90;;;;;;4869376;29;20025;-92
2021/01/08 14:39:25;;;;;;;33.35;15.63;;;3.10;99.90;;;;;;4882980;29;20056;-91
2021/01/08 14:41:55;;;;;;;24.52;15.55;;;3.10;99.90;;;;;;4882494;29;20049;-91
2021/01/08 14:44:28;;;;;;;20.80;13.02;;;3.20;99.90;;;;;;4866117;29;20022;-92
2021/01/08 14:47:03;;;;;;;24.13;14.15;;;3.10;99.90;;;;;;4866238;29;20041;-91
2021/01/08 14:49:32;;;;;;;32.08;16.42;;;3.10;99.90;;;;;;4938043;23;20109;-91
2021/01/08 14:52:04;;;;;;;33.90;17.58;;;3.00;99.90;;;;;;4919602;23;20137;-91
2021/01/08 14:54:30;;;;;;;28.42;15.65;;;3.00;99.90;;;;;;4904995;29;20028;-91
2021/01/08 14:56:57;;;;;;;21.92;13.40;;;3.10;99.90;;;;;;4901367;29;20042;-89
2021/01/08 14:59:27;;;;;;;21.05;12.55;;;3.00;99.90;;;;;;4889739;29;20032;-92
2021/01/08 15:02:14;;;;;;;;;;;;;;;;;;;;;
2021/01/08 15:04:40;;;;;;;67.07;38.00;;;3.00;99.90;;;;;;4906897;29;20116;-92
2021/01/08 15:07:06;;;;;;;28.80;16.20;;;2.90;99.90;;;;;;4889551;29;20063;-91
2021/01/08 15:09:34;;;;;;;21.23;13.18;;;2.90;99.90;;;;;;4889391;29;20433;-90
2021/01/08 15:12:04;;;;;;;26.65;14.73;;;2.90;99.90;;;;;;4915038;29;20065;-91
2021/01/08 15:14:36;;;;;;;20.63;11.30;;;3.00;99.90;;;;;;4904225;29;20039;-92
2021/01/08 15:17:02;;;;;;;18.40;10.23;;;3.00;99.90;;;;;;4921485;29;20088;-90
2021/01/08 15:19:30;;;;;;;21.40;12.10;;;2.90;99.90;;;;;;4919325;29;20047;-92
2021/01/08 15:22:00;;;;;;;16.98;9.88;;;2.90;99.90;;;;;;4904511;29;20021;-92
2021/01/08 15:24:35;;;;;;;14.10;9.10;;;2.80;99.90;;;;;;4881206;29;20036;-93
2021/01/08 15:27:19;;;;;;;14.60;8.60;;;2.70;99.90;;;;;;4906931;29;20021;-92
2021/01/08 15:29:48;;;;;;;16.95;9.95;;;2.70;99.90;;;;;;4873940;29;20013;-91
2021/01/08 15:32:14;;;;;;;15.43;9.23;;;2.50;99.90;;;;;;4890005;29;20024;-92
2021/01/08 15:34:51;;;;;;;16.05;9.02;;;2.60;99.90;;;;;;4903440;29;20025;-94
2021/01/08 15:37:17;;;;;;;21.33;11.25;;;2.60;99.90;;;;;;4905922;29;20028;-92
2021/01/08 15:39:43;;;;;;;16.55;9.32;;;2.60;99.90;;;;;;4889932;29;20052;-91
2021/01/08 15:42:19;;;;;;;17.83;11.10;;;2.50;99.90;;;;;;4892071;29;20055;-93
2021/01/08 15:44:45;;;;;;;22.92;11.93;;;2.50;99.90;;;;;;4890129;29;20033;-93
2021/01/08 15:47:12;;;;;;;21.77;10.60;;;2.60;99.90;;;;;;4912726;29;20043;-94
2021/01/08 15:49:39;;;;;;;20.20;11.20;;;2.60;99.90;;;;;;4897125;29;20029;-92
2021/01/08 15:52:05;;;;;;;18.73;10.43;;;2.50;99.90;;;;;;4906201;29;20044;-93
2021/01/08 15:54:31;;;;;;;18.95;10.15;;;2.40;99.90;;;;;;4903681;29;20037;-92
2021/01/08 15:57:00;;;;;;;35.83;17.00;;;2.50;99.90;;;;;;4922706;29;20028;-93
2021/01/08 15:59:32;;;;;;;22.70;13.02;;;2.50;99.90;;;;;;4883719;29;20073;-92
2021/01/08 16:02:06;;;;;;;18.48;8.95;;;2.50;99.90;;;;;;4920512;29;20033;-93
2021/01/08 16:04:33;;;;;;;20.33;11.80;;;2.60;99.90;;;;;;4924504;29;20036;-92
2021/01/08 16:06:58;;;;;;;16.40;10.57;;;2.50;99.90;;;;;;4919284;29;20032;-91
2021/01/08 16:09:48;;;;;;;21.60;12.70;;;2.40;99.90;;;;;;4910242;29;20025;-92
2021/01/08 16:12:14;;;;;;;29.38;16.27;;;2.50;99.90;;;;;;4893303;29;20037;-90
2021/01/08 16:14:43;;;;;;;21.38;11.68;;;2.50;99.90;;;;;;4896584;29;20071;-92
2021/01/08 16:17:14;;;;;;;18.35;11.20;;;2.50;99.90;;;;;;4914323;29;20029;-91
2021/01/08 16:19:45;;;;;;;23.23;13.82;;;2.50;99.90;;;;;;4913046;29;20048;-90
2021/01/08 16:22:11;;;;;;;22.07;10.87;;;2.50;99.90;;;;;;4894097;29;20040;-91
2021/01/08 16:24:49;;;;;;;20.88;10.45;;;2.50;99.90;;;;;;4892921;29;20288;-91
2021/01/08 16:27:28;;;;;;;17.63;10.30;;;2.60;99.90;;;;;;4886475;29;20064;-90
2021/01/08 16:29:53;;;;;;;21.70;11.70;;;2.60;99.90;;;;;;4923208;29;20031;-91
2021/01/08 16:32:21;;;;;;;19.48;10.18;;;2.60;99.90;;;;;;4907415;29;20028;-90
2021/01/08 16:34:48;;;;;;;21.83;12.35;;;2.50;99.90;;;;;;4905723;29;20048;-90
2021/01/08 16:37:17;;;;;;;20.67;11.27;;;2.50;99.90;;;;;;4923771;29;20013;-92
2021/01/08 16:39:44;;;;;;;15.18;8.07;;;2.50;99.90;;;;;;4907952;29;20046;-90
2021/01/08 16:42:15;;;;;;;16.38;9.75;;;2.60;99.90;;;;;;4898488;29;20048;-91
2021/01/08 16:44:58;;;;;;;14.98;7.93;;;2.60;99.90;;;;;;4917459;29;20056;-95
2021/01/08 16:47:24;;;;;;;15.23;9.00;;;2.60;99.90;;;;;;4887832;29;20018;-92
2021/01/08 16:49:50;;;;;;;16.23;9.23;;;2.60;99.90;;;;;;4882082;29;20044;-91
2021/01/08 16:52:24;;;;;;;17.67;9.43;;;2.70;99.90;;;;;;4879449;29;20061;-91
2021/01/08 16:54:50;;;;;;;15.15;8.70;;;2.50;99.90;;;;;;5007818;23;20041;-92
2021/01/08 16:57:17;;;;;;;15.00;9.43;;;2.60;99.90;;;;;;4886237;29;20077;-89
2021/01/08 16:59:45;;;;;;;17.13;10.02;;;2.60;99.90;;;;;;4883665;29;20017;-93
2021/01/08 17:02:12;;;;;;;16.05;8.57;;;2.50;99.90;;;;;;4859590;29;20054;-91
2021/01/08 17:04:40;;;;;;;20.55;11.07;;;2.50;99.90;;;;;;4873532;29;20037;-91
2021/01/08 17:07:11;;;;;;;11.45;6.90;;;2.50;99.90;;;;;;4892092;29;20097;-91
2021/01/08 17:09:37;;;;;;;13.27;7.32;;;2.70;99.90;;;;;;4898910;29;20045;-91
2021/01/08 17:12:03;;;;;;;14.90;8.00;;;2.60;99.90;;;;;;4877525;29;20033;-91
2021/01/08 17:14:30;;;;;;;19.42;9.18;;;2.70;99.90;;;;;;4876172;29;20514;-91
2021/01/08 17:17:00;;;;;;;15.48;8.63;;;2.60;99.90;;;;;;4887455;29;20280;-90
2021/01/08 17:19:29;;;;;;;13.80;7.97;;;2.60;99.90;;;;;;4889137;29;20052;-91
2021/01/08 17:21:55;;;;;;;14.98;8.57;;;2.50;99.90;;;;;;4888442;29;20523;-91
2021/01/08 17:24:22;;;;;;;13.02;7.57;;;2.50;99.90;;;;;;4876576;29;20033;-91
2021/01/08 17:26:49;;;;;;;13.27;8.43;;;2.50;99.90;;;;;;4876309;29;20056;-88
2021/01/08 17:29:21;;;;;;;15.25;8.45;;;2.50;99.90;;;;;;4881580;29;20170;-89
2021/01/08 17:31:46;;;;;;;15.20;9.20;;;2.50;99.90;;;;;;4863793;29;20154;-91
2021/01/08 17:34:12;;;;;;;19.23;10.90;;;2.50;99.90;;;;;;4870468;29;20029;-90
2021/01/08 17:36:38;;;;;;;16.45;8.90;;;2.50;99.90;;;;;;4887416;29;20056;-90
2021/01/08 17:39:08;;;;;;;16.33;9.65;;;2.50;99.90;;;;;;4887484;29;20029;-91
2021/01/08 17:41:37;;;;;;;17.75;10.35;;;2.40;99.90;;;;;;4868254;29;20184;-90
2021/01/08 17:44:03;;;;;;;21.83;10.38;;;2.40;99.90;;;;;;4874560;29;20135;-92
2021/01/08 17:46:29;;;;;;;17.70;10.10;;;2.60;99.90;;;;;;4888039;29;20109;-90
2021/01/08 17:48:56;;;;;;;21.95;10.52;;;2.50;99.90;;;;;;4882277;29;20057;-90
2021/01/08 17:51:22;;;;;;;20.95;10.57;;;2.50;99.90;;;;;;4880608;29;20032;-90
2021/01/08 17:53:49;;;;;;;20.73;10.85;;;2.50;99.90;;;;;;4880333;29;20063;-89
2021/01/08 17:56:28;;;;;;;20.15;10.52;;;2.40;99.90;;;;;;4855114;29;20067;-90
2021/01/08 17:58:55;;;;;;;21.83;11.27;;;2.50;99.90;;;;;;4881805;29;20103;-90
2021/01/08 18:01:21;;;;;;;22.65;12.25;;;2.50;99.90;;;;;;4858899;29;20037;-90
2021/01/08 18:03:48;;;;;;;26.85;13.90;;;2.50;99.90;;;;;;4872802;29;20097;-89
2021/01/08 18:06:16;;;;;;;20.15;11.23;;;2.60;99.90;;;;;;4867564;29;20053;-91
2021/01/08 18:08:44;;;;;;;20.23;11.65;;;2.60;99.90;;;;;;4870149;29;20018;-89
2021/01/08 18:11:11;;;;;;;19.52;11.70;;;2.60;99.90;;;;;;4896997;29;20072;-89
2021/01/08 18:13:38;;;;;;;26.17;11.57;;;2.60;99.90;;;;;;4902381;29;20021;-90
2021/01/08 18:16:04;;;;;;;19.35;10.93;;;2.50;99.90;;;;;;4881899;29;20029;-89
2021/01/08 18:18:31;;;;;;;22.35;11.43;;;2.50;99.90;;;;;;4859207;29;20026;-91
2021/01/08 18:21:03;;;;;;;23.42;12.93;;;2.60;99.90;;;;;;4850834;29;20029;-88
2021/01/08 18:23:29;;;;;;;24.95;13.73;;;2.60;99.90;;;;;;4866558;29;20033;-90
2021/01/08 18:25:56;;;;;;;22.15;12.23;;;2.60;99.90;;;;;;4878669;29;20037;-89
2021/01/08 18:28:24;;;;;;;22.65;12.25;;;2.40;99.90;;;;;;4867834;29;20076;-89
2021/01/08 18:30:56;;;;;;;18.00;10.73;;;2.50;99.90;;;;;;4872136;29;20607;-89
2021/01/08 18:33:22;;;;;;;23.20;13.18;;;2.60;99.90;;;;;;4860930;29;20097;-89
2021/01/08 18:35:49;;;;;;;19.98;10.82;;;2.70;99.90;;;;;;5046606;23;20041;-91
2021/01/08 18:38:18;;;;;;;24.52;12.48;;;2.60;99.90;;;;;;4899315;29;20044;-89
2021/01/08 18:40:44;;;;;;;21.10;12.05;;;2.50;99.90;;;;;;4880411;29;20016;-89
2021/01/08 18:43:10;;;;;;;20.42;11.60;;;2.50;99.90;;;;;;4925740;23;20032;-90
2021/01/08 18:45:38;;;;;;;22.30;12.80;;;2.40;99.90;;;;;;4885342;29;20111;-90
2021/01/08 18:48:04;;;;;;;20.95;12.35;;;2.30;99.90;;;;;;4886955;29;20068;-90
2021/01/08 18:50:31;;;;;;;19.27;11.40;;;2.20;99.90;;;;;;4870255;29;20044;-91
2021/01/08 18:53:04;;;;;;;20.85;11.68;;;2.20;99.90;;;;;;4885500;29;20040;-90
2021/01/08 18:55:32;;;;;;;21.38;11.80;;;2.00;99.90;;;;;;4891994;29;20041;-90
2021/01/08 18:58:02;;;;;;;24.10;12.43;;;2.10;99.90;;;;;;4893021;29;20056;-88
2021/01/08 19:00:28;;;;;;;24.77;13.13;;;2.10;99.90;;;;;;5018938;23;20057;-89
2021/01/08 19:02:53;;;;;;;24.15;11.75;;;2.10;99.90;;;;;;4911363;29;20062;-90
2021/01/08 19:05:20;;;;;;;22.73;12.45;;;1.90;99.90;;;;;;4900512;29;20111;-92
2021/01/08 19:07:48;;;;;;;24.70;13.35;;;2.20;99.90;;;;;;4890547;29;20090;-91
2021/01/08 19:10:19;;;;;;;24.10;11.75;;;2.20;99.90;;;;;;4885139;29;20057;-91
2021/01/08 19:12:45;;;;;;;23.90;13.13;;;2.10;99.90;;;;;;4891766;29;20041;-91
2021/01/08 19:15:15;;;;;;;24.70;13.73;;;2.10;99.90;;;;;;4889642;29;20044;-90
2021/01/08 19:17:43;;;;;;;22.92;12.63;;;2.00;99.90;;;;;;4898923;29;20029;-91
2021/01/08 19:20:38;;;;;;;24.35;13.35;;;1.90;99.90;;;;;;4868540;29;20051;-91
2021/01/08 19:23:04;;;;;;;22.17;11.32;;;1.80;99.90;;;;;;4893775;29;20053;-91
2021/01/08 19:25:39;;;;;;;24.50;12.73;;;1.60;99.90;;;;;;4879065;29;20036;-92
2021/01/08 19:28:10;;;;;;;22.05;12.07;;;1.50;99.90;;;;;;4885405;29;20069;-90
2021/01/08 19:30:43;;;;;;;23.75;12.88;;;1.30;99.90;;;;;;4885909;29;20456;-90
2021/01/08 19:33:15;;;;;;;24.27;12.70;;;1.10;99.90;;;;;;4875477;29;20395;-90
2021/01/08 19:35:44;;;;;;;26.25;13.50;;;1.00;99.90;;;;;;4886427;29;20029;-90
2021/01/08 19:50:07;;;;;;;31.50;15.23;;;0.60;99.90;;;;;;5326058;23;20056;-91
2021/01/08 19:58:55;;;;;;;;;;;;;;;;;;;;;
2021/01/08 20:04:13;;;;;;;33.45;16.42;;;0.50;99.90;;;;;;4900668;29;19963;-93
2021/01/08 20:07:10;;;;;;;28.65;16.30;;;0.50;99.90;;;;;;4894139;29;20057;-93
2021/01/08 20:12:24;;;;;;;31.77;16.60;;;0.50;99.90;;;;;;4897197;29;20029;-90
2021/01/08 20:14:50;;;;;;;30.92;15.02;;;0.50;99.90;;;;;;4897368;29;20100;-89
2021/01/08 20:17:18;;;;;;;30.70;15.45;;;0.50;99.90;;;;;;4890855;29;20025;-86
2021/01/08 20:22:27;;;;;;;32.67;16.73;;;0.40;99.90;;;;;;4921165;23;20055;-90
2021/01/08 20:25:02;;;;;;;;;;;;;;;;;;;;;
2021/01/08 20:28:04;;;;;;;33.05;16.30;;;0.30;99.90;;;;;;4894431;29;20047;-88
2021/01/08 20:31:06;;;;;;;;;;;;;;;;;;;;;
2021/01/08 20:34:04;;;;;;;;;;;;;;;;;;;;;
2021/01/08 20:36:30;;;;;;;26.15;14.38;;;0.40;99.90;;;;;;4912206;29;20470;-89
2021/01/08 20:39:30;;;;;;;;;;;;;;;;;;;;;
2021/01/08 20:41:56;;;;;;;36.22;14.65;;;0.50;99.90;;;;;;5021953;23;20064;-88
2021/01/08 20:48:20;;;;;;;29.25;15.65;;;0.50;99.90;;;;;;4801177;30;20251;-90